Time;durP1;ratioP1;P1;durP2;ratioP2;P2;SDS_P1;SDS_P2;PMS_P1;PMS_P2;Temp;Humidity;BMP_temperature;BMP_pressure;BME280_temperature;BME280_humidity;BME280_pressure;Samples;Min_cycle;Max_cycle;Signal;HPM_P1;HPM_P2
2023/10/05 00:02:17;;;;;;;14.00;7.80;;;;;;;7.69;100.00;99963.38;272896;1275;22242;-81
2023/10/05 00:08:19;;;;;;;12.60;7.30;;;;;;;7.63;100.00;99944.00;272751;1273;22189;-81
2023/10/05 00:14:24;;;;;;;14.40;8.30;;;;;;;7.61;100.00;99945.27;272507;1271;22795;-82
2023/10/05 00:20:34;;;;;;;14.00;7.40;;;;;;;7.63;100.00;99946.71;272312;1271;22329;-82
2023/10/05 00:26:36;;;;;;;18.00;8.00;;;;;;;7.70;100.00;99942.63;272520;1271;22392;-82
2023/10/05 00:32:39;;;;;;;13.70;8.00;;;;;;;7.72;100.00;99941.94;272772;1271;22189;-82
2023/10/05 00:38:46;;;;;;;13.70;7.20;;;;;;;7.74;100.00;99935.11;272405;1271;24755;-82
2023/10/05 00:44:48;;;;;;;13.40;6.30;;;;;;;7.77;100.00;99936.27;272915;1272;22301;-82
2023/10/05 00:50:56;;;;;;;11.60;6.50;;;;;;;7.79;100.00;99933.59;272410;1272;23128;-82
2023/10/05 00:57:01;;;;;;;11.60;6.50;;;;;;;7.77;100.00;99932.98;272616;1271;23894;-82
2023/10/05 01:09:40;;;;;;;10.40;6.40;;;;;;;7.77;100.00;99926.14;272643;1272;23021;-81
2023/10/05 01:15:47;;;;;;;14.70;6.80;;;;;;;7.74;100.00;99917.67;272542;1271;23184;-81
2023/10/05 01:21:51;;;;;;;10.30;6.20;;;;;;;7.66;100.00;99913.66;273035;1272;22474;-82
2023/10/05 01:27:54;;;;;;;10.10;5.50;;;;;;;7.59;100.00;99909.02;272666;1272;22211;-82
2023/10/05 01:33:58;;;;;;;10.20;6.00;;;;;;;7.55;100.00;99897.54;272507;1271;22418;-82
2023/10/05 01:40:01;;;;;;;13.60;6.60;;;;;;;7.49;100.00;99898.30;272628;1271;22219;-82
2023/10/05 01:46:04;;;;;;;15.60;6.70;;;;;;;7.47;100.00;99896.61;272540;1271;22408;-81
2023/10/05 01:52:07;;;;;;;13.50;6.30;;;;;;;7.47;100.00;99887.73;271669;1271;22520;-82
2023/10/05 01:58:13;;;;;;;11.70;7.00;;;;;;;7.47;100.00;99877.45;271424;1271;23936;-82
2023/10/05 02:04:15;;;;;;;10.60;6.00;;;;;;;7.43;100.00;99874.34;272483;1272;22400;-82
2023/10/05 02:10:20;;;;;;;14.00;7.00;;;;;;;7.39;100.00;99867.25;272556;1271;23119;-82
2023/10/05 02:16:23;;;;;;;11.50;6.90;;;;;;;7.34;100.00;99862.95;269477;1271;22220;-83
2023/10/05 02:22:25;;;;;;;14.70;7.50;;;;;;;7.34;100.00;99860.63;270392;1272;22246;-82
2023/10/05 02:28:27;;;;;;;11.00;6.50;;;;;;;7.38;100.00;99858.80;272433;1271;22205;-82
2023/10/05 02:34:42;;;;;;;12.20;6.50;;;;;;;7.38;100.00;99849.77;272595;1270;22366;-82
2023/10/05 02:40:53;;;;;;;16.00;6.80;;;;;;;7.38;100.00;99843.31;272481;1271;23418;-82
2023/10/05 02:47:14;;;;;;;9.70;5.70;;;;;;;7.38;100.00;99844.17;272589;1272;22186;-81
2023/10/05 02:53:18;;;;;;;10.50;6.40;;;;;;;7.40;100.00;99843.71;272781;1272;22242;-82
2023/10/05 02:59:24;;;;;;;10.60;6.00;;;;;;;7.39;100.00;99837.15;273085;1273;22403;-82
2023/10/05 03:05:26;;;;;;;13.70;6.60;;;;;;;7.43;100.00;99834.02;272602;1271;22351;-82
2023/10/05 03:11:38;;;;;;;11.60;6.70;;;;;;;7.44;100.00;99835.55;272590;1272;22865;-82
2023/10/05 03:17:40;;;;;;;10.40;5.90;;;;;;;7.42;100.00;99835.69;272627;1272;22205;-82
2023/10/05 03:23:42;;;;;;;11.90;6.40;;;;;;;7.40;100.00;99835.85;272453;1272;24208;-82
2023/10/05 03:29:47;;;;;;;12.40;5.90;;;;;;;7.37;100.00;99837.14;272419;1267;22888;-82
2023/10/05 03:36:13;;;;;;;17.90;6.00;;;;;;;7.32;100.00;99832.22;273168;1273;22908;-81
2023/10/05 03:42:15;;;;;;;10.00;5.90;;;;;;;7.27;100.00;99835.60;269778;1272;22425;-81
2023/10/05 03:48:22;;;;;;;11.00;6.30;;;;;;;7.28;100.00;99839.44;272466;1267;156914;-80
2023/10/05 03:54:24;;;;;;;13.20;6.40;;;;;;;7.29;100.00;99841.36;272532;1271;22430;-82
2023/10/05 04:00:34;;;;;;;13.40;6.20;;;;;;;7.23;100.00;99847.41;272506;1268;22400;-82
2023/10/05 04:06:36;;;;;;;13.50;6.50;;;;;;;7.16;100.00;99847.23;272534;1271;22499;-81
2023/10/05 04:12:40;;;;;;;14.10;6.70;;;;;;;7.17;100.00;99844.92;272506;1271;23538;-81
2023/10/05 04:18:42;;;;;;;11.30;6.50;;;;;;;7.13;100.00;99844.73;272879;1271;22165;-81
2023/10/05 04:24:45;;;;;;;11.80;6.20;;;;;;;7.06;100.00;99844.21;272623;1271;22643;-81
2023/10/05 04:30:47;;;;;;;14.00;6.50;;;;;;;7.03;100.00;99842.52;272596;1271;22217;-81
2023/10/05 04:36:50;;;;;;;15.10;7.00;;;;;;;6.99;100.00;99835.16;272638;1271;22202;-81
2023/10/05 04:42:52;;;;;;;11.90;7.00;;;;;;;6.92;100.00;99833.58;272563;1266;22384;-81
2023/10/05 04:48:55;;;;;;;14.60;6.30;;;;;;;6.86;100.00;99832.63;273085;1271;22212;-81
2023/10/05 04:55:11;;;;;;;10.90;6.50;;;;;;;6.80;100.00;99819.40;272386;1271;22681;-81
2023/10/05 05:01:28;;;;;;;11.00;6.00;;;;;;;6.80;100.00;99824.04;272439;1271;23238;-82
2023/10/05 05:07:30;;;;;;;11.50;5.80;;;;;;;6.85;100.00;99830.48;272520;1271;22125;-81
2023/10/05 05:13:32;;;;;;;13.80;7.10;;;;;;;6.89;100.00;99827.13;271366;1258;22686;-81
2023/10/05 05:19:37;;;;;;;13.70;7.00;;;;;;;6.84;100.00;99822.35;270814;1271;23577;-81
2023/10/05 05:25:39;;;;;;;19.50;5.90;;;;;;;6.84;100.00;99815.13;272400;1271;23381;-81
2023/10/05 05:31:41;;;;;;;13.40;7.00;;;;;;;6.93;100.00;99814.61;272692;1271;22388;-81
2023/10/05 05:37:44;;;;;;;11.40;6.00;;;;;;;7.03;100.00;99809.90;272620;1271;22905;-82
2023/10/05 05:43:46;;;;;;;12.10;6.30;;;;;;;7.18;100.00;99802.60;272557;1271;22516;-82
2023/10/05 05:49:49;;;;;;;12.30;5.40;;;;;;;7.33;100.00;99802.61;272325;1271;23330;-81
2023/10/05 05:55:55;;;;;;;11.60;6.30;;;;;;;7.54;100.00;99799.55;272527;1271;22376;-81
2023/10/05 06:02:00;;;;;;;11.40;6.20;;;;;;;7.94;100.00;99795.34;272517;1262;22850;-83
2023/10/05 06:08:03;;;;;;;11.30;5.40;;;;;;;8.40;100.00;99794.66;272691;1271;22196;-81
2023/10/05 06:14:05;;;;;;;8.50;5.70;;;;;;;8.82;100.00;99794.48;272577;1271;22419;-81
2023/10/05 06:20:13;;;;;;;11.60;5.20;;;;;;;9.19;100.00;99790.69;272635;1271;22369;-83
2023/10/05 06:26:18;;;;;;;9.10;4.80;;;;;;;9.59;100.00;99784.48;272659;1271;22499;-81
2023/10/05 06:32:20;;;;;;;13.70;5.50;;;;;;;9.85;100.00;99784.94;272627;1271;22415;-81
2023/10/05 06:38:22;;;;;;;10.50;4.60;;;;;;;10.04;100.00;99784.73;272573;1271;22343;-81
2023/10/05 06:44:24;;;;;;;7.60;4.00;;;;;;;10.21;100.00;99789.58;272684;1271;22420;-81
2023/10/05 06:50:26;;;;;;;12.60;4.60;;;;;;;10.37;100.00;99784.37;272633;1265;23545;-81
2023/10/05 06:56:28;;;;;;;14.10;4.80;;;;;;;10.53;100.00;99774.35;270758;1271;22224;-80
2023/10/05 07:02:30;;;;;;;13.10;4.40;;;;;;;10.74;100.00;99774.98;270160;1271;23315;-80
2023/10/05 07:08:33;;;;;;;10.10;4.60;;;;;;;11.02;100.00;99779.45;269899;1271;22591;-82
2023/10/05 07:14:36;;;;;;;10.70;4.40;;;;;;;11.35;100.00;99780.77;269904;1266;22971;-81
2023/10/05 07:20:41;;;;;;;10.10;3.90;;;;;;;11.70;100.00;99784.31;270484;1271;23279;-82
2023/10/05 07:26:43;;;;;;;11.50;5.50;;;;;;;12.12;100.00;99783.35;269915;1271;22299;-82
2023/10/05 07:32:45;;;;;;;15.40;5.90;;;;;;;12.47;100.00;99782.30;270098;1271;24220;-81
2023/10/05 07:38:47;;;;;;;16.40;6.30;;;;;;;12.73;100.00;99780.75;273008;1272;22212;-82
2023/10/05 07:44:48;;;;;;;15.50;6.90;;;;;;;13.09;100.00;99777.34;271929;1271;22584;-82
2023/10/05 07:50:53;;;;;;;16.30;6.70;;;;;;;13.48;100.00;99769.59;272068;1265;23625;-81
2023/10/05 07:56:54;;;;;;;18.60;8.70;;;;;;;13.85;100.00;99767.80;272314;1268;22370;-82
2023/10/05 08:02:57;;;;;;;14.50;6.80;;;;;;;14.09;100.00;99766.79;273203;1274;23189;-81
2023/10/05 08:08:59;;;;;;;11.00;5.30;;;;;;;14.29;100.00;99769.81;271206;1271;22201;-82
2023/10/05 08:15:01;;;;;;;13.30;4.30;;;;;;;14.49;100.00;99766.77;272059;1271;23964;-81
2023/10/05 08:21:04;;;;;;;8.10;3.20;;;;;;;14.65;100.00;99762.55;272516;1256;22172;-81
2023/10/05 08:27:06;;;;;;;7.50;2.80;;;;;;;14.94;100.00;99757.77;272082;1271;23174;-82
2023/10/05 08:33:15;;;;;;;5.20;2.00;;;;;;;15.21;100.00;99756.95;272520;1266;22149;-82
2023/10/05 08:39:22;;;;;;;5.00;2.30;;;;;;;15.85;100.00;99757.34;271971;1264;22557;-82
2023/10/05 08:45:25;;;;;;;3.80;1.90;;;;;;;16.38;100.00;99753.00;272144;1271;22171;-81
2023/10/05 08:51:28;;;;;;;5.00;2.20;;;;;;;16.81;99.50;99744.60;272354;1271;22700;-82
2023/10/05 08:57:31;;;;;;;11.00;3.60;;;;;;;17.41;98.41;99746.08;271384;1271;22205;-83
2023/10/05 09:03:35;;;;;;;7.20;3.40;;;;;;;17.86;96.29;99740.38;271176;1271;25268;-82
2023/10/05 09:09:39;;;;;;;6.80;2.70;;;;;;;18.30;94.76;99732.70;272557;1271;22517;-84
2023/10/05 09:15:50;;;;;;;7.20;3.50;;;;;;;19.18;93.66;99729.20;272403;1271;22516;-82
2023/10/05 09:22:05;;;;;;;4.50;2.40;;;;;;;20.07;92.82;99721.42;271870;1271;22259;-84
2023/10/05 09:28:13;;;;;;;6.00;1.70;;;;;;;20.82;89.56;99716.25;272528;1271;22323;-83
2023/10/05 09:34:15;;;;;;;5.80;2.20;;;;;;;21.48;87.14;99712.86;272581;1271;23323;-83
2023/10/05 09:40:17;;;;;;;4.60;1.90;;;;;;;21.86;85.08;99709.74;272380;1268;22527;-83
2023/10/05 09:46:20;;;;;;;6.00;1.70;;;;;;;21.98;82.24;99709.80;272408;1271;22319;-84
2023/10/05 09:52:24;;;;;;;4.90;2.00;;;;;;;22.14;79.22;99714.00;272540;1271;22273;-83
2023/10/05 09:58:30;;;;;;;7.80;2.10;;;;;;;21.98;77.22;99713.85;272555;1271;22175;-83
2023/10/05 10:04:35;;;;;;;;;;;;;;;21.46;75.52;99715.30;271993;1271;22497;-84
2023/10/05 10:10:40;;;;;;;3.30;1.90;;;;;;;21.64;74.68;99702.73;271796;1271;22741;-85
2023/10/05 10:16:43;;;;;;;3.60;2.00;;;;;;;21.80;72.42;99700.88;271567;1271;22208;-83
2023/10/05 10:22:55;;;;;;;3.40;1.80;;;;;;;21.88;71.24;99691.55;271467;1271;22516;-83
2023/10/05 10:28:58;;;;;;;5.60;2.30;;;;;;;22.02;69.66;99687.15;272615;1271;22881;-83
2023/10/05 10:35:27;;;;;;;8.50;2.70;;;;;;;22.41;68.26;99677.25;272593;1271;22290;-83
2023/10/05 10:41:30;;;;;;;5.30;1.70;;;;;;;22.46;66.62;99666.45;272265;1271;23171;-83
2023/10/05 10:47:39;;;;;;;4.10;1.80;;;;;;;21.93;65.30;99659.06;272537;1271;22193;-82
2023/10/05 10:53:43;;;;;;;4.20;2.00;;;;;;;21.34;64.66;99643.61;272531;1257;24577;-82
2023/10/05 10:59:56;;;;;;;6.70;2.50;;;;;;;21.12;64.18;99635.77;272351;1271;23654;-82
2023/10/05 11:06:15;;;;;;;4.30;1.60;;;;;;;20.65;63.07;99633.20;272595;1271;23832;-81
2023/10/05 11:12:17;;;;;;;3.70;1.80;;;;;;;20.12;62.70;99628.77;272535;1271;23567;-82
2023/10/05 11:18:20;;;;;;;3.70;1.70;;;;;;;19.83;62.39;99621.95;271587;1272;23849;-84
2023/10/05 11:24:25;;;;;;;4.10;2.00;;;;;;;19.79;62.54;99619.23;271861;1271;22407;-83
2023/10/05 11:30:45;;;;;;;2.70;1.30;;;;;;;19.73;62.36;99614.33;272849;1271;23173;-80
2023/10/05 11:36:47;;;;;;;7.00;1.70;;;;;;;19.67;62.24;99612.59;272628;1271;22377;-83
2023/10/05 11:42:50;;;;;;;3.20;1.70;;;;;;;19.48;61.87;99602.73;272725;1272;22402;-82
2023/10/05 11:48:55;;;;;;;4.50;1.80;;;;;;;19.25;61.92;99601.61;272034;1271;22683;-83
2023/10/05 11:54:57;;;;;;;4.50;1.70;;;;;;;19.05;61.93;99599.99;270983;1271;22220;-83
2023/10/05 12:01:03;;;;;;;6.00;2.10;;;;;;;19.05;62.40;99592.55;270128;1271;23683;-82
2023/10/05 12:07:12;;;;;;;4.10;2.00;;;;;;;18.99;62.21;99583.89;271663;1271;22498;-81
2023/10/05 12:13:15;;;;;;;5.00;1.90;;;;;;;18.89;62.38;99580.46;270680;1262;22575;-81
2023/10/05 12:19:27;;;;;;;4.60;2.20;;;;;;;18.77;62.08;99567.71;270134;1271;23678;-82
2023/10/05 12:25:29;;;;;;;4.80;1.70;;;;;;;18.64;62.54;99568.89;270759;1271;22202;-85
2023/10/05 12:31:33;;;;;;;4.40;2.20;;;;;;;18.60;63.38;99562.99;271498;1269;22943;-83
2023/10/05 12:37:35;;;;;;;7.90;2.50;;;;;;;18.52;63.46;99558.20;271310;1264;22647;-82
2023/10/05 12:43:37;;;;;;;5.00;2.10;;;;;;;18.38;63.50;99555.17;272430;1271;22481;-83
2023/10/05 12:49:41;;;;;;;6.50;2.00;;;;;;;18.27;63.26;99553.94;272152;1272;22420;-84
2023/10/05 12:55:44;;;;;;;7.10;2.00;;;;;;;18.16;63.46;99553.10;272454;1271;22187;-82
2023/10/05 13:01:46;;;;;;;4.60;1.90;;;;;;;18.12;63.99;99554.10;272634;1272;22193;-83
2023/10/05 13:07:49;;;;;;;3.50;1.90;;;;;;;18.02;63.91;99548.43;272387;1272;22401;-82
2023/10/05 13:13:59;;;;;;;6.40;1.70;;;;;;;17.94;64.16;99539.48;272552;1268;22285;-83
2023/10/05 13:20:01;;;;;;;4.80;1.70;;;;;;;17.88;63.90;99538.52;272771;1270;22398;-84
2023/10/05 13:26:06;;;;;;;6.40;2.00;;;;;;;17.76;63.42;99542.35;272785;1270;22429;-82
2023/10/05 13:32:12;;;;;;;4.80;2.10;;;;;;;17.68;63.35;99543.60;271363;1270;22385;-84
2023/10/05 13:38:13;;;;;;;5.20;1.90;;;;;;;17.61;63.69;99540.58;272462;1270;23789;-83
2023/10/05 13:44:17;;;;;;;7.30;2.20;;;;;;;17.55;64.26;99534.31;271004;1268;22655;-83
2023/10/05 13:50:22;;;;;;;4.10;2.10;;;;;;;17.45;64.25;99521.64;270025;1270;25326;-82
2023/10/05 13:56:27;;;;;;;7.00;2.50;;;;;;;17.40;64.44;99520.56;271533;1270;22207;-82
2023/10/05 14:02:31;;;;;;;4.40;1.90;;;;;;;17.37;64.48;99519.79;271900;1263;23043;-84
2023/10/05 14:08:33;;;;;;;5.30;2.30;;;;;;;17.35;64.73;99508.42;272782;1257;22184;-83
2023/10/05 14:14:35;;;;;;;4.30;2.40;;;;;;;17.36;64.66;99510.46;272013;1267;22415;-83
2023/10/05 14:20:38;;;;;;;7.00;2.40;;;;;;;17.34;64.41;99508.02;271643;1270;23035;-85
2023/10/05 14:26:44;;;;;;;7.50;3.40;;;;;;;17.33;63.95;99505.52;272639;1269;23219;-83
2023/10/05 14:32:49;;;;;;;6.80;2.60;;;;;;;17.36;63.75;99511.26;273114;1273;22265;-82
2023/10/05 14:38:51;;;;;;;6.30;2.80;;;;;;;17.34;63.61;99515.08;272657;1270;22487;-82
2023/10/05 14:44:53;;;;;;;5.90;2.70;;;;;;;17.27;63.69;99511.02;272492;1270;23387;-83
2023/10/05 14:51:09;;;;;;;5.20;2.40;;;;;;;17.20;63.91;99511.29;272142;1270;22414;-84
2023/10/05 14:57:12;;;;;;;7.70;3.00;;;;;;;17.13;64.51;99504.48;272097;1270;23097;-85
2023/10/05 15:03:17;;;;;;;4.90;2.30;;;;;;;17.03;64.82;99506.36;272360;1270;22280;-83
2023/10/05 15:09:25;;;;;;;8.60;2.60;;;;;;;16.93;65.19;99517.33;272450;1270;22278;-83
2023/10/05 15:15:27;;;;;;;5.90;2.40;;;;;;;16.81;65.46;99518.36;272762;1270;22414;-83
2023/10/05 15:21:32;;;;;;;9.60;2.90;;;;;;;16.69;65.74;99522.05;272811;1270;23559;-83
2023/10/05 15:27:34;;;;;;;8.50;2.90;;;;;;;16.56;66.38;99523.61;272856;1272;22191;-83
2023/10/05 15:33:36;;;;;;;6.50;2.80;;;;;;;16.45;66.91;99523.73;272469;1272;22566;-82
2023/10/05 15:39:38;;;;;;;6.90;2.90;;;;;;;16.37;67.40;99536.61;270557;1270;23483;-83
2023/10/05 15:45:40;;;;;;;7.20;3.10;;;;;;;16.27;67.87;99540.04;272108;1267;23044;-82
2023/10/05 15:51:42;;;;;;;9.20;2.90;;;;;;;16.15;68.55;99548.35;272547;1270;93653;-83
2023/10/05 15:57:47;;;;;;;7.00;3.00;;;;;;;15.99;68.97;99551.95;272358;1270;22219;-82
2023/10/05 16:03:49;;;;;;;8.70;2.90;;;;;;;15.82;69.37;99555.20;272803;1270;22304;-83
2023/10/05 16:10:00;;;;;;;8.10;3.50;;;;;;;15.67;69.79;99567.44;273163;1262;23793;-83
2023/10/05 16:16:03;;;;;;;8.80;3.50;;;;;;;15.51;70.52;99574.60;272816;1270;22282;-83
2023/10/05 16:22:05;;;;;;;6.30;3.40;;;;;;;15.32;71.01;99578.36;272726;1270;23604;-82
2023/10/05 16:28:07;;;;;;;6.00;3.00;;;;;;;15.14;71.54;99587.14;272812;1270;22381;-82
2023/10/05 16:34:09;;;;;;;13.40;3.70;;;;;;;15.03;71.90;99606.89;271293;1270;22394;-83
2023/10/05 16:40:13;;;;;;;8.40;4.20;;;;;;;14.96;72.24;99608.60;272488;1270;22619;-83
2023/10/05 16:46:14;;;;;;;7.00;3.50;;;;;;;14.90;72.84;99611.41;272030;1270;22776;-83
2023/10/05 16:52:17;;;;;;;11.00;3.80;;;;;;;14.83;72.91;99619.10;271371;1266;23891;-83
2023/10/05 16:58:19;;;;;;;9.30;4.10;;;;;;;14.74;73.29;99623.08;263734;1272;10001317;-82
2023/10/05 17:04:21;;;;;;;9.30;4.20;;;;;;;14.64;74.31;99623.42;272596;1270;22279;-82
2023/10/05 17:10:24;;;;;;;9.20;4.30;;;;;;;14.52;75.03;99625.73;272596;1271;22457;-82
2023/10/05 17:16:29;;;;;;;14.50;5.20;;;;;;;14.34;75.73;99629.56;272619;1271;22180;-82
2023/10/05 17:22:31;;;;;;;13.60;5.80;;;;;;;14.23;76.38;99633.97;272568;1271;22202;-82
2023/10/05 17:28:53;;;;;;;15.90;6.50;;;;;;;14.09;77.35;99640.77;272625;1270;23697;-82
2023/10/05 17:34:55;;;;;;;20.60;7.60;;;;;;;13.84;77.25;99639.95;272588;1270;24282;-82
2023/10/05 17:40:57;;;;;;;18.50;7.70;;;;;;;13.65;77.43;99641.11;272943;1272;22198;-83
2023/10/05 17:47:02;;;;;;;17.30;6.80;;;;;;;13.55;78.25;99643.23;272510;1270;22500;-85
2023/10/05 17:53:03;;;;;;;15.40;6.30;;;;;;;13.55;79.17;99642.91;272541;1270;22448;-83
2023/10/05 17:59:05;;;;;;;12.60;5.60;;;;;;;13.51;79.28;99643.11;272537;1270;22225;-83
2023/10/05 18:05:11;;;;;;;11.50;6.00;;;;;;;13.42;79.99;99654.17;272330;1270;23498;-83
2023/10/05 18:11:19;;;;;;;15.40;5.70;;;;;;;13.31;80.63;99660.51;270512;1270;25207;-82
2023/10/05 18:17:24;;;;;;;12.80;6.10;;;;;;;13.23;81.28;99669.92;271482;1270;23166;-82
2023/10/05 18:23:25;;;;;;;14.40;6.10;;;;;;;13.16;81.97;99674.02;272316;1260;22404;-82
2023/10/05 18:29:33;;;;;;;16.70;6.20;;;;;;;13.11;82.36;99674.90;273184;1277;22210;-82
2023/10/05 18:35:40;;;;;;;15.20;6.00;;;;;;;13.04;82.73;99677.24;272731;1270;22237;-82
2023/10/05 18:41:42;;;;;;;11.70;5.70;;;;;;;13.01;83.80;99679.02;272512;1270;22451;-82
2023/10/05 18:47:44;;;;;;;13.70;7.10;;;;;;;12.99;84.23;99688.39;272428;1270;22183;-82
2023/10/05 18:53:50;;;;;;;13.00;5.80;;;;;;;12.93;84.85;99692.39;270849;1270;24726;-82
2023/10/05 18:59:53;;;;;;;12.30;6.40;;;;;;;12.89;84.98;99692.96;272137;1270;22436;-82
2023/10/05 19:05:56;;;;;;;15.80;6.20;;;;;;;12.89;85.26;99689.42;271274;1267;22559;-81
2023/10/05 19:12:00;;;;;;;20.00;7.00;;;;;;;12.90;85.44;99693.92;272542;1270;22725;-81
2023/10/05 19:18:04;;;;;;;12.30;5.30;;;;;;;12.85;85.79;99692.05;272617;1270;22379;-82
2023/10/05 19:24:07;;;;;;;12.50;6.60;;;;;;;12.88;86.61;99698.05;272634;1270;22434;-83
2023/10/05 19:30:13;;;;;;;20.70;6.90;;;;;;;12.89;87.05;99702.14;272736;1270;22408;-82
2023/10/05 19:36:16;;;;;;;14.20;6.40;;;;;;;12.88;86.88;99702.93;272607;1270;22303;-82
2023/10/05 19:42:18;;;;;;;13.30;6.20;;;;;;;12.88;87.24;99705.75;272621;1270;22344;-82
2023/10/05 19:48:21;;;;;;;13.10;5.80;;;;;;;12.95;88.01;99709.20;271517;1270;22375;-82
2023/10/05 19:54:23;;;;;;;14.20;6.90;;;;;;;12.97;88.43;99717.25;272592;1270;23560;-82
2023/10/05 20:00:25;;;;;;;19.80;7.20;;;;;;;12.97;88.27;99716.01;273405;1274;22371;-82
2023/10/05 20:06:30;;;;;;;22.40;8.70;;;;;;;13.02;88.45;99719.79;272530;1270;22398;-82
2023/10/05 20:12:34;;;;;;;20.50;7.80;;;;;;;13.06;88.52;99724.14;272603;1270;23596;-81
2023/10/05 20:18:36;;;;;;;20.30;8.20;;;;;;;13.10;88.67;99730.41;272756;1263;22373;-81
2023/10/05 20:24:38;;;;;;;27.60;9.20;;;;;;;13.14;88.99;99730.15;271747;1270;22559;-82
2023/10/05 20:30:40;;;;;;;24.50;9.50;;;;;;;13.16;89.17;99727.80;270840;1263;22220;-82
2023/10/05 20:36:44;;;;;;;30.40;9.10;;;;;;;13.19;89.47;99729.17;271080;1270;23779;-82
2023/10/05 20:42:46;;;;;;;29.00;9.00;;;;;;;13.18;89.17;99730.19;270319;1270;25392;-82
2023/10/05 20:48:48;;;;;;;26.50;9.10;;;;;;;13.18;89.33;99728.77;269372;1270;22632;-82
2023/10/05 20:54:53;;;;;;;22.50;8.50;;;;;;;13.20;89.39;99730.05;270558;1270;22204;-81
2023/10/05 21:00:56;;;;;;;25.00;8.90;;;;;;;13.21;89.43;99730.70;271570;1270;25178;-82
2023/10/05 21:06:59;;;;;;;19.90;7.70;;;;;;;13.21;89.21;99729.20;272935;1270;22331;-81
2023/10/05 21:13:01;;;;;;;19.30;7.20;;;;;;;13.23;89.29;99730.02;272969;1270;22357;-81
2023/10/05 21:19:03;;;;;;;19.60;8.10;;;;;;;13.26;89.07;99724.80;272910;1270;23048;-82
2023/10/05 21:25:06;;;;;;;15.30;5.90;;;;;;;13.30;89.21;99728.84;272931;1270;22427;-82
2023/10/05 21:31:12;;;;;;;19.00;6.80;;;;;;;13.30;89.12;99736.16;273003;1270;22197;-81
2023/10/05 21:37:56;;;;;;;14.80;5.80;;;;;;;13.31;88.93;99738.74;273488;1278;24181;-81
2023/10/05 21:43:58;;;;;;;15.90;5.10;;;;;;;13.32;88.93;99740.96;272964;1270;23365;-81
2023/10/05 21:50:00;;;;;;;14.20;6.20;;;;;;;13.35;88.97;99742.48;272258;1270;22293;-82
2023/10/05 21:56:03;;;;;;;12.00;5.40;;;;;;;13.35;89.08;99748.40;272968;1270;22319;-81
2023/10/05 22:02:05;;;;;;;13.00;6.10;;;;;;;13.36;89.06;99755.31;272964;1270;23197;-82
2023/10/05 22:08:08;;;;;;;9.70;4.80;;;;;;;13.34;89.67;99753.95;272982;1257;22454;-82
2023/10/05 22:14:13;;;;;;;12.40;5.80;;;;;;;13.31;89.94;99767.66;273057;1270;23545;-81
2023/10/05 22:20:15;;;;;;;14.30;5.60;;;;;;;13.27;90.47;99781.70;272460;1270;22313;-81
2023/10/05 22:26:17;;;;;;;12.10;5.30;;;;;;;13.21;91.48;99774.78;272777;1265;22643;-82
2023/10/05 22:32:19;;;;;;;12.70;5.50;;;;;;;13.11;92.60;99769.60;272895;1270;22551;-81
2023/10/05 22:38:22;;;;;;;9.90;5.10;;;;;;;13.02;93.43;99769.88;272855;1270;23045;-82
2023/10/05 22:44:25;;;;;;;12.90;6.00;;;;;;;12.93;94.26;99777.65;272884;1267;22357;-81
2023/10/05 22:50:26;;;;;;;20.20;6.10;;;;;;;12.84;95.07;99787.09;272794;1270;22451;-81
2023/10/05 22:56:28;;;;;;;11.30;5.70;;;;;;;12.72;96.26;99795.80;272886;1270;22233;-81
2023/10/05 23:02:30;;;;;;;11.50;5.90;;;;;;;12.66;96.81;99798.14;272808;1270;22396;-81
2023/10/05 23:08:32;;;;;;;12.70;5.80;;;;;;;12.59;97.13;99797.81;272837;1270;22434;-81
2023/10/05 23:14:34;;;;;;;13.60;5.90;;;;;;;12.54;97.29;99806.36;273050;1270;22186;-81
2023/10/05 23:20:56;;;;;;;10.90;5.50;;;;;;;12.50;97.62;99805.42;272842;1270;22142;-83
2023/10/05 23:26:59;;;;;;;11.50;5.70;;;;;;;12.42;97.92;99808.27;273194;1275;22285;-82
2023/10/05 23:33:01;;;;;;;15.20;6.60;;;;;;;12.41;98.95;99811.47;272830;1266;22310;-82
2023/10/05 23:39:08;;;;;;;13.60;6.40;;;;;;;12.43;99.33;99815.49;272741;1265;22723;-82
2023/10/05 23:45:12;;;;;;;19.50;7.30;;;;;;;12.45;99.87;99822.83;272862;1266;22419;-81
2023/10/05 23:51:23;;;;;;;15.60;7.10;;;;;;;12.44;100.00;99829.17;272818;1270;22179;-83
2023/10/05 23:57:27;;;;;;;18.50;8.40;;;;;;;12.45;100.00;99832.41;273442;1272;22984;-82
